createdAt,value
2022-09-17T00:01:23.001Z,47.66
2022-09-17T00:03:52.486Z,47.62
2022-09-17T00:06:19.441Z,47.63
2022-09-17T00:08:46.054Z,47.66
2022-09-17T00:11:14.677Z,47.60
2022-09-17T00:13:42.013Z,47.55
2022-09-17T00:16:08.704Z,47.42
2022-09-17T00:18:37.022Z,47.40
2022-09-17T00:21:03.980Z,47.42
2022-09-17T00:23:30.590Z,47.52
2022-09-17T00:25:57.136Z,47.48
2022-09-17T00:28:23.679Z,47.52
2022-09-17T00:30:50.272Z,47.55
2022-09-17T00:33:17.539Z,47.56
2022-09-17T00:35:44.370Z,47.70
2022-09-17T00:38:11.059Z,47.73
2022-09-17T00:40:37.891Z,47.71
2022-09-17T00:43:10.577Z,47.69
2022-09-17T00:45:39.758Z,47.65
2022-09-17T00:48:06.505Z,47.69
2022-09-17T00:50:40.547Z,47.64
2022-09-17T00:53:10.966Z,47.61
2022-09-17T00:55:39.528Z,47.68
2022-09-17T00:58:08.115Z,47.70
2022-09-17T01:00:34.899Z,47.64
2022-09-17T01:03:01.599Z,47.65
2022-09-17T01:05:51.183Z,47.65
2022-09-17T01:08:29.293Z,47.72
2022-09-17T01:11:31.352Z,47.59
2022-09-17T01:14:06.485Z,47.66
2022-09-17T01:16:54.203Z,47.65
2022-09-17T01:19:38.923Z,47.71
2022-09-17T01:22:27.860Z,47.68
2022-09-17T01:25:29.479Z,47.67
2022-09-17T01:28:05.126Z,47.71
2022-09-17T01:30:53.571Z,47.67
2022-09-17T01:33:28.894Z,47.66
2022-09-17T01:36:22.629Z,47.58
2022-09-17T01:39:04.948Z,47.50
2022-09-17T01:41:38.045Z,47.44
2022-09-17T01:44:28.038Z,47.39
2022-09-17T01:47:04.490Z,47.37
2022-09-17T01:49:31.756Z,47.31
2022-09-17T01:51:58.328Z,47.30
2022-09-17T01:54:31.112Z,47.27
2022-09-17T01:57:03.634Z,47.17
2022-09-17T01:59:33.250Z,47.17
2022-09-17T02:02:13.464Z,47.16
2022-09-17T02:04:47.087Z,47.26
2022-09-17T02:07:20.917Z,47.19
2022-09-17T02:09:52.075Z,47.16
2022-09-17T02:12:21.385Z,47.19
2022-09-17T02:14:49.777Z,47.19
2022-09-17T02:17:27.977Z,47.12
2022-09-17T02:19:54.660Z,47.03
2022-09-17T02:22:40.760Z,47.04
2022-09-17T02:25:20.686Z,46.97
2022-09-17T02:27:52.578Z,46.97
2022-09-17T02:30:19.209Z,46.96
2022-09-17T02:32:46.498Z,46.96
2022-09-17T02:35:14.277Z,46.90
2022-09-17T02:37:42.212Z,46.96
2022-09-17T02:40:09.782Z,46.75
2022-09-17T02:42:56.527Z,46.78
2022-09-17T02:45:36.797Z,46.75
2022-09-17T02:48:45.439Z,46.74
2022-09-17T02:51:22.429Z,46.75
2022-09-17T02:54:05.620Z,46.56
2022-09-17T02:56:57.472Z,46.62
2022-09-17T02:59:37.935Z,46.66
2022-09-17T03:02:19.531Z,46.61
2022-09-17T03:04:47.247Z,46.56
2022-09-17T03:07:13.793Z,46.61
2022-09-17T03:09:41.753Z,46.47
2022-09-17T03:12:08.523Z,46.49
2022-09-17T03:14:35.076Z,46.50
2022-09-17T03:17:01.626Z,46.52
2022-09-17T03:19:28.165Z,46.47
2022-09-17T03:21:54.777Z,46.40
2022-09-17T03:24:21.321Z,46.29
2022-09-17T03:26:49.320Z,46.32
2022-09-17T03:29:16.380Z,46.30
2022-09-17T03:31:42.999Z,46.34
2022-09-17T03:34:09.604Z,46.28
2022-09-17T03:36:36.181Z,46.24
2022-09-17T03:39:02.745Z,46.29
2022-09-17T03:41:29.360Z,46.33
2022-09-17T03:43:55.919Z,46.36
2022-09-17T03:46:22.617Z,46.17
2022-09-17T03:48:49.219Z,46.18
2022-09-17T03:51:15.882Z,46.23
2022-09-17T03:53:42.556Z,46.21
2022-09-17T03:56:09.173Z,46.14
2022-09-17T03:58:35.937Z,46.09
2022-09-17T04:01:04.120Z,46.24
2022-09-17T04:03:30.679Z,46.34
2022-09-17T04:05:57.241Z,46.58
2022-09-17T04:08:23.901Z,46.75
2022-09-17T04:10:51.912Z,46.36
2022-09-17T04:13:18.599Z,46.24
2022-09-17T04:15:45.663Z,45.89
2022-09-17T04:18:12.476Z,45.40
2022-09-17T04:20:39.041Z,45.26
2022-09-17T04:23:07.319Z,44.82
2022-09-17T04:25:34.088Z,44.44
2022-09-17T04:28:00.656Z,44.20
2022-09-17T04:30:27.293Z,43.91
2022-09-17T04:32:53.891Z,43.70
2022-09-17T04:35:20.429Z,43.49
2022-09-17T04:37:54.423Z,43.64
2022-09-17T04:40:21.516Z,43.32
2022-09-17T04:42:48.343Z,43.24
2022-09-17T04:45:14.948Z,43.11
2022-09-17T04:47:41.529Z,43.25
2022-09-17T04:50:08.500Z,43.03
2022-09-17T04:52:35.038Z,42.88
2022-09-17T04:55:01.589Z,43.09
2022-09-17T04:57:28.279Z,42.97
2022-09-17T04:59:54.810Z,42.87
2022-09-17T05:02:21.429Z,42.80
2022-09-17T05:04:48.419Z,42.89
2022-09-17T05:07:14.976Z,42.94
2022-09-17T05:09:41.702Z,42.77
2022-09-17T05:12:08.272Z,42.86
2022-09-17T05:14:34.840Z,42.81
2022-09-17T05:17:01.385Z,42.72
2022-09-17T05:19:27.943Z,42.83
2022-09-17T05:21:54.517Z,42.66
2022-09-17T05:24:21.068Z,42.48
2022-09-17T05:26:47.769Z,42.70
2022-09-17T05:29:14.309Z,42.71
2022-09-17T05:31:40.991Z,42.64
2022-09-17T05:34:08.756Z,42.55
2022-09-17T05:36:35.298Z,42.46
2022-09-17T05:39:01.864Z,42.48
2022-09-17T05:41:28.469Z,42.44
2022-09-17T05:43:55.211Z,42.45
2022-09-17T05:46:21.839Z,42.45
2022-09-17T05:48:48.387Z,42.15
2022-09-17T05:51:14.996Z,42.35
2022-09-17T05:53:42.379Z,42.36
2022-09-17T05:56:08.942Z,42.44
2022-09-17T05:58:35.705Z,42.19
2022-09-17T06:01:02.267Z,42.19
2022-09-17T06:03:28.805Z,42.21
2022-09-17T06:05:56.913Z,42.13
2022-09-17T06:08:23.503Z,42.00
2022-09-17T06:10:50.140Z,42.02
2022-09-17T06:13:17.689Z,41.82
2022-09-17T06:15:51.424Z,41.99
2022-09-17T06:18:18.275Z,41.88
2022-09-17T06:20:53.286Z,41.65
2022-09-17T06:23:19.852Z,41.75
2022-09-17T06:25:52.187Z,41.75
2022-09-17T06:28:18.751Z,41.50
2022-09-17T06:30:45.300Z,41.63
2022-09-17T06:33:11.919Z,41.56
2022-09-17T06:35:38.459Z,41.36
2022-09-17T06:38:07.940Z,41.27
2022-09-17T06:40:34.733Z,41.16
2022-09-17T06:43:02.686Z,41.08
2022-09-17T06:45:29.513Z,41.00
2022-09-17T06:47:56.368Z,41.08
2022-09-17T06:50:22.924Z,40.91
2022-09-17T06:52:50.305Z,41.05
2022-09-17T06:55:16.891Z,40.92
2022-09-17T06:57:43.561Z,40.96
2022-09-17T07:00:10.807Z,40.98
2022-09-17T07:02:37.356Z,40.81
2022-09-17T07:05:04.187Z,40.83
2022-09-17T07:07:35.710Z,40.61
2022-09-17T07:10:04.138Z,40.77
2022-09-17T07:12:30.685Z,40.82
2022-09-17T07:14:57.220Z,40.71
2022-09-17T07:17:23.772Z,40.74
2022-09-17T07:19:50.910Z,40.64
2022-09-17T07:22:17.524Z,40.71
2022-09-17T07:24:47.328Z,40.67
2022-09-17T07:27:13.908Z,40.83
2022-09-17T07:29:41.454Z,40.57
2022-09-17T07:32:08.086Z,40.51
2022-09-17T07:34:34.732Z,40.67
2022-09-17T07:37:01.385Z,40.72
2022-09-17T07:39:27.945Z,40.54
2022-09-17T07:41:54.511Z,40.45
2022-09-17T07:44:22.251Z,40.52
2022-09-17T07:46:48.894Z,40.64
2022-09-17T07:49:15.464Z,40.35
2022-09-17T07:51:44.490Z,40.59
2022-09-17T07:54:12.200Z,40.44
2022-09-17T07:56:41.754Z,40.37
2022-09-17T07:59:09.577Z,40.50
2022-09-17T08:01:46.878Z,40.32
2022-09-17T08:04:14.228Z,40.42
2022-09-17T08:06:41.101Z,40.33
2022-09-17T08:09:09.901Z,40.15
2022-09-17T08:11:56.055Z,40.15
2022-09-17T08:14:28.411Z,40.14
2022-09-17T08:16:56.130Z,40.24
2022-09-17T08:19:22.716Z,40.07
2022-09-17T08:21:49.254Z,40.28
2022-09-17T08:24:15.885Z,40.10
2022-09-17T08:26:42.512Z,40.31
2022-09-17T08:29:10.495Z,40.03
2022-09-17T08:31:37.303Z,40.23
2022-09-17T08:34:08.257Z,39.98
2022-09-17T08:36:34.786Z,40.17
2022-09-17T08:39:01.365Z,39.95
2022-09-17T08:41:34.282Z,40.11
2022-09-17T08:44:26.080Z,40.14
2022-09-17T08:47:06.233Z,40.16
2022-09-17T08:49:35.636Z,40.08
2022-09-17T08:52:06.046Z,40.08
2022-09-17T08:54:41.441Z,39.93
2022-09-17T08:57:19.763Z,40.01
2022-09-17T09:00:17.107Z,39.85
2022-09-17T09:02:43.588Z,39.78
2022-09-17T09:05:15.792Z,39.86
2022-09-17T09:07:45.075Z,40.08
2022-09-17T09:10:23.332Z,40.13
2022-09-17T09:12:51.168Z,40.02
2022-09-17T09:15:27.423Z,40.15
2022-09-17T09:17:54.257Z,40.33
2022-09-17T09:20:46.457Z,40.33
2022-09-17T09:23:18.779Z,40.29
2022-09-17T09:26:00.175Z,40.43
2022-09-17T09:28:49.826Z,40.32
2022-09-17T09:31:26.037Z,40.48
2022-09-17T09:33:52.695Z,40.29
2022-09-17T09:36:21.897Z,40.28
2022-09-17T09:39:00.019Z,40.49
2022-09-17T09:41:32.991Z,40.42
2022-09-17T09:44:05.006Z,40.46
2022-09-17T09:47:09.501Z,40.65
2022-09-17T09:49:40.233Z,40.65
2022-09-17T09:52:12.366Z,40.82
2022-09-17T09:55:07.057Z,40.82
2022-09-17T09:57:49.384Z,40.82
2022-09-17T10:00:38.773Z,40.76
2022-09-17T10:03:21.333Z,40.92
2022-09-17T10:06:01.899Z,40.78
2022-09-17T10:08:30.158Z,40.94
2022-09-17T10:11:20.215Z,41.11
2022-09-17T10:13:46.767Z,41.13
2022-09-17T10:16:26.709Z,41.14
2022-09-17T10:19:05.381Z,41.19
2022-09-17T10:21:32.578Z,41.18
2022-09-17T10:23:59.730Z,41.17
2022-09-17T10:26:29.127Z,41.28
2022-09-17T10:28:59.513Z,41.29
2022-09-17T10:31:26.224Z,41.29
2022-09-17T10:33:53.787Z,41.31
2022-09-17T10:36:46.823Z,41.29
2022-09-17T10:39:32.732Z,41.43
2022-09-17T10:42:20.984Z,41.44
2022-09-17T10:45:02.630Z,41.44
2022-09-17T10:47:30.264Z,41.51
2022-09-17T10:50:15.830Z,41.48
2022-09-17T10:52:50.542Z,41.44
2022-09-17T10:55:54.942Z,41.41
2022-09-17T10:58:38.057Z,41.41
2022-09-17T11:01:39.457Z,41.49
2022-09-17T11:04:18.896Z,41.46
2022-09-17T11:06:48.397Z,41.48
2022-09-17T11:09:19.056Z,41.56
2022-09-17T11:12:04.365Z,41.59
2022-09-17T11:15:04.670Z,41.68
2022-09-17T11:17:54.060Z,41.54
2022-09-17T11:20:44.517Z,41.53
2022-09-17T11:23:26.718Z,41.62
2022-09-17T11:26:01.166Z,41.63
2022-09-17T11:28:49.628Z,41.59
2022-09-17T11:31:37.253Z,41.73
2022-09-17T11:34:25.004Z,41.77
2022-09-17T11:36:51.408Z,41.67
2022-09-17T11:39:21.798Z,41.77
2022-09-17T11:41:48.851Z,41.78
2022-09-17T11:44:36.557Z,41.73
2022-09-17T11:47:09.672Z,41.66
2022-09-17T11:50:14.887Z,41.68
2022-09-17T11:52:44.244Z,41.72
2022-09-17T11:55:31.569Z,41.70
2022-09-17T11:58:00.788Z,41.70
2022-09-17T12:00:28.254Z,41.71
2022-09-17T12:03:00.477Z,41.72
2022-09-17T12:05:43.442Z,41.83
2022-09-17T12:08:42.274Z,41.71
2022-09-17T12:11:18.902Z,41.75
2022-09-17T12:13:51.495Z,41.81
2022-09-17T12:16:43.581Z,41.90
2022-09-17T12:19:34.741Z,41.87
2022-09-17T12:22:15.676Z,41.83
2022-09-17T12:24:44.623Z,41.77
2022-09-17T12:27:38.871Z,41.73
2022-09-17T12:30:09.116Z,41.84
2022-09-17T12:32:54.699Z,41.94
2022-09-17T12:36:02.439Z,41.83
2022-09-17T12:38:29.053Z,41.83
2022-09-17T12:41:21.381Z,41.90
2022-09-17T12:43:56.685Z,41.98
2022-09-17T12:46:26.136Z,41.93
2022-09-17T12:49:05.220Z,42.00
2022-09-17T12:51:50.367Z,41.94
2022-09-17T12:54:45.026Z,41.92
2022-09-17T12:57:23.920Z,41.93
2022-09-17T13:00:11.690Z,41.96
2022-09-17T13:02:41.180Z,42.03
2022-09-17T13:05:15.123Z,42.08
2022-09-17T13:07:57.289Z,42.08
2022-09-17T13:10:51.677Z,42.14
2022-09-17T13:13:37.128Z,42.13
2022-09-17T13:16:13.373Z,42.07
2022-09-17T13:19:05.561Z,42.13
2022-09-17T13:21:49.366Z,42.08
2022-09-17T13:24:20.288Z,42.12
2022-09-17T13:26:47.006Z,42.15
2022-09-17T13:29:14.645Z,42.16
2022-09-17T13:31:44.444Z,42.15
2022-09-17T13:34:17.052Z,42.16
2022-09-17T13:36:43.624Z,42.20
2022-09-17T13:39:29.469Z,42.20
2022-09-17T13:42:29.950Z,42.21
2022-09-17T13:45:13.447Z,42.25
2022-09-17T13:47:58.489Z,42.25
2022-09-17T13:50:28.805Z,42.20
2022-09-17T13:52:57.067Z,42.24
2022-09-17T13:55:37.221Z,42.23
2022-09-17T13:58:12.711Z,42.20
2022-09-17T14:00:51.699Z,42.21
2022-09-17T14:03:46.519Z,42.24
2022-09-17T14:06:15.499Z,42.24
2022-09-17T14:08:45.241Z,42.17
2022-09-17T14:11:23.853Z,42.21
2022-09-17T14:13:51.390Z,42.21
2022-09-17T14:16:40.735Z,42.24
2022-09-17T14:19:17.098Z,42.18
2022-09-17T14:22:02.122Z,42.15
2022-09-17T14:24:34.631Z,42.23
2022-09-17T14:27:10.115Z,42.15
2022-09-17T14:29:48.749Z,42.16
2022-09-17T14:32:20.855Z,42.16
2022-09-17T14:34:48.399Z,42.14
2022-09-17T14:37:17.241Z,42.23
2022-09-17T14:39:43.780Z,42.23
2022-09-17T14:42:15.424Z,42.25
2022-09-17T14:45:02.538Z,42.13
2022-09-17T14:47:29.101Z,42.12
2022-09-17T14:49:55.680Z,42.06
2022-09-17T14:52:26.651Z,42.09
2022-09-17T14:55:19.122Z,42.02
2022-09-17T14:57:55.824Z,42.06
2022-09-17T15:00:32.504Z,42.05
2022-09-17T15:03:01.940Z,42.10
2022-09-17T15:05:30.395Z,41.99
2022-09-17T15:08:09.669Z,41.98
2022-09-17T15:10:56.548Z,41.83
2022-09-17T15:13:31.115Z,41.86
2022-09-17T15:16:17.446Z,41.80
2022-09-17T15:18:48.117Z,41.90
2022-09-17T15:21:44.273Z,41.88
2022-09-17T15:24:36.612Z,41.93
2022-09-17T15:27:35.808Z,41.85
2022-09-17T15:30:13.975Z,41.82
2022-09-17T15:32:50.547Z,41.93
2022-09-17T15:35:21.403Z,41.86
2022-09-17T15:38:18.428Z,41.72
2022-09-17T15:40:39.875Z,41.89
2022-09-17T15:43:35.236Z,41.66
2022-09-17T15:46:27.566Z,41.81
2022-09-17T15:48:58.128Z,41.81
2022-09-17T15:51:35.676Z,41.75
2022-09-17T15:54:06.994Z,41.82
2022-09-17T15:56:37.989Z,41.76
2022-09-17T15:59:23.481Z,41.92
2022-09-17T16:01:52.433Z,41.76
2022-09-17T16:04:22.930Z,41.76
2022-09-17T16:06:56.252Z,41.76
2022-09-17T16:09:46.874Z,41.69
2022-09-17T16:12:16.660Z,41.79
2022-09-17T16:14:47.563Z,41.67
2022-09-17T16:17:29.122Z,41.75
2022-09-17T16:19:56.304Z,41.70
2022-09-17T16:22:23.023Z,41.70
2022-09-17T16:24:49.643Z,41.66
2022-09-17T16:27:27.463Z,41.66
2022-09-17T16:30:03.119Z,41.66
2022-09-17T16:32:29.693Z,41.65
2022-09-17T16:34:56.275Z,41.65
2022-09-17T16:37:22.834Z,41.66
2022-09-17T16:39:50.948Z,41.73
2022-09-17T16:42:17.526Z,41.77
2022-09-17T16:44:44.105Z,41.83
2022-09-17T16:47:10.643Z,41.75
2022-09-17T16:49:37.192Z,41.78
2022-09-17T16:52:03.757Z,41.83
2022-09-17T16:54:30.299Z,41.86
2022-09-17T16:56:56.843Z,41.88
2022-09-17T16:59:23.399Z,41.92
2022-09-17T17:01:50.178Z,41.90
2022-09-17T17:04:17.635Z,41.90
2022-09-17T17:06:44.201Z,41.86
2022-09-17T17:09:12.266Z,41.95
2022-09-17T17:11:39.315Z,41.93
2022-09-17T17:14:06.220Z,41.99
2022-09-17T17:16:32.855Z,41.94
2022-09-17T17:18:59.431Z,42.02
2022-09-17T17:21:25.974Z,42.09
2022-09-17T17:23:52.511Z,42.09
2022-09-17T17:26:19.040Z,42.12
2022-09-17T17:28:46.716Z,42.16
2022-09-17T17:31:13.343Z,42.10
2022-09-17T17:33:40.340Z,42.19
2022-09-17T17:36:08.501Z,42.15
2022-09-17T17:38:35.722Z,42.19
2022-09-17T17:41:22.970Z,42.26
2022-09-17T17:43:52.535Z,42.33
2022-09-17T17:46:19.178Z,42.28
2022-09-17T17:48:46.107Z,42.27
2022-09-17T17:51:12.823Z,42.26
2022-09-17T17:53:41.985Z,42.32
2022-09-17T17:56:09.031Z,42.38
2022-09-17T17:58:35.907Z,42.38
2022-09-17T18:01:21.162Z,42.40
2022-09-17T18:03:47.746Z,42.43
2022-09-17T18:06:14.297Z,42.49
2022-09-17T18:08:42.096Z,42.48
2022-09-17T18:11:09.343Z,42.45
2022-09-17T18:13:36.491Z,42.43
2022-09-17T18:16:03.989Z,42.41
2022-09-17T18:18:35.370Z,42.45
2022-09-17T18:21:03.265Z,42.43
2022-09-17T18:23:29.811Z,42.45
2022-09-17T18:25:57.397Z,42.38
2022-09-17T18:28:24.047Z,42.49
2022-09-17T18:30:50.676Z,42.48
2022-09-17T18:33:24.528Z,42.48
2022-09-17T18:35:51.781Z,42.47
2022-09-17T18:38:18.401Z,42.55
2022-09-17T18:40:45.035Z,42.54
2022-09-17T18:43:11.673Z,42.50
2022-09-17T18:45:38.258Z,42.56
2022-09-17T18:48:05.268Z,42.59
2022-09-17T18:50:31.919Z,42.49
2022-09-17T18:52:58.513Z,42.52
2022-09-17T18:55:25.091Z,42.57
2022-09-17T18:57:51.762Z,42.57
2022-09-17T19:00:21.562Z,42.66
2022-09-17T19:02:48.709Z,42.64
2022-09-17T19:05:16.044Z,42.63
2022-09-17T19:07:46.407Z,42.71
2022-09-17T19:10:13.779Z,42.53
2022-09-17T19:12:40.740Z,42.58
2022-09-17T19:15:08.914Z,42.72
2022-09-17T19:17:35.655Z,42.72
2022-09-17T19:20:02.941Z,42.69
2022-09-17T19:22:31.879Z,42.70
2022-09-17T19:24:58.427Z,42.68
2022-09-17T19:27:24.999Z,42.78
2022-09-17T19:29:51.655Z,42.78
2022-09-17T19:32:18.219Z,42.82
2022-09-17T19:34:44.782Z,42.79
2022-09-17T19:37:11.372Z,42.78
2022-09-17T19:39:37.919Z,42.68
2022-09-17T19:42:04.827Z,42.81
2022-09-17T19:44:31.404Z,42.80
2022-09-17T19:46:58.011Z,42.71
2022-09-17T19:49:24.636Z,42.71
2022-09-17T19:51:51.187Z,42.77
2022-09-17T19:54:17.858Z,42.66
2022-09-17T19:56:44.449Z,42.79
2022-09-17T19:59:11.406Z,42.87
2022-09-17T20:01:38.040Z,42.86
2022-09-17T20:04:04.697Z,42.83
2022-09-17T20:06:33.151Z,42.75
2022-09-17T20:08:59.988Z,42.77
2022-09-17T20:11:27.023Z,42.85
2022-09-17T20:14:06.507Z,42.88
2022-09-17T20:16:36.753Z,42.79
2022-09-17T20:19:03.611Z,42.82
2022-09-17T20:21:30.194Z,42.77
2022-09-17T20:23:56.898Z,42.81
2022-09-17T20:26:23.444Z,42.83
2022-09-17T20:28:51.160Z,42.77
2022-09-17T20:31:19.915Z,42.90
2022-09-17T20:33:46.574Z,42.86
2022-09-17T20:36:17.273Z,42.97
2022-09-17T20:41:34.313Z,42.90
2022-09-17T20:44:00.871Z,42.83
2022-09-17T20:46:29.291Z,42.92
2022-09-17T20:48:57.718Z,42.91
2022-09-17T20:51:26.487Z,42.80
2022-09-17T20:53:53.177Z,42.86
2022-09-17T20:56:21.261Z,42.89
2022-09-17T20:58:53.532Z,42.86
2022-09-17T21:01:21.862Z,42.86
2022-09-17T21:03:50.235Z,42.94
2022-09-17T21:06:21.951Z,43.02
2022-09-17T21:08:48.665Z,43.02
2022-09-17T21:11:15.330Z,43.07
2022-09-17T21:13:41.937Z,42.91
2022-09-17T21:16:08.563Z,42.95
2022-09-17T21:18:39.318Z,42.93
2022-09-17T21:21:11.461Z,42.93
2022-09-17T21:23:38.590Z,42.99
2022-09-17T21:26:11.684Z,43.05
2022-09-17T21:28:38.507Z,43.01
2022-09-17T21:31:12.630Z,43.01
2022-09-17T21:33:39.302Z,43.01
2022-09-17T21:36:10.433Z,43.04
2022-09-17T21:38:37.011Z,42.98
2022-09-17T21:41:05.972Z,42.99
2022-09-17T21:43:33.495Z,42.96
2022-09-17T21:46:05.065Z,42.99
2022-09-17T21:48:32.121Z,43.06
2022-09-17T21:51:08.837Z,43.10
2022-09-17T21:53:35.455Z,43.05
2022-09-17T21:56:09.756Z,42.98
2022-09-17T21:58:36.293Z,42.98
2022-09-17T22:01:04.934Z,43.02
2022-09-17T22:03:31.484Z,43.04
2022-09-17T22:06:02.470Z,43.08
2022-09-17T22:08:29.008Z,43.09
2022-09-17T22:11:00.980Z,42.99
2022-09-17T22:13:27.567Z,43.07
2022-09-17T22:16:01.022Z,43.05
2022-09-17T22:18:27.860Z,43.03
2022-09-17T22:20:55.701Z,43.11
2022-09-17T22:23:22.993Z,43.14
2022-09-17T22:25:49.609Z,43.05
2022-09-17T22:28:21.500Z,43.03
2022-09-17T22:30:48.431Z,42.98
2022-09-17T22:33:15.009Z,42.97
2022-09-17T22:35:41.578Z,43.07
2022-09-17T22:38:08.112Z,43.13
2022-09-17T22:40:36.313Z,42.98
2022-09-17T22:43:03.116Z,43.06
2022-09-17T22:45:29.680Z,42.98
2022-09-17T22:47:56.355Z,43.03
2022-09-17T22:50:22.921Z,42.99
2022-09-17T22:52:49.478Z,43.18
2022-09-17T22:55:16.044Z,43.00
2022-09-17T22:57:42.583Z,43.08
2022-09-17T23:00:09.780Z,43.11
2022-09-17T23:02:39.094Z,43.26
2022-09-17T23:05:05.793Z,43.17
2022-09-17T23:07:32.378Z,43.24
2022-09-17T23:09:58.913Z,43.25
2022-09-17T23:12:25.475Z,43.12
2022-09-17T23:14:52.055Z,43.16
2022-09-17T23:17:18.611Z,43.19
2022-09-17T23:19:45.159Z,43.14
2022-09-17T23:22:11.723Z,43.14
2022-09-17T23:24:38.302Z,43.20
2022-09-17T23:27:04.960Z,43.17
2022-09-17T23:29:31.527Z,43.13
2022-09-17T23:31:58.099Z,43.19
2022-09-17T23:34:24.753Z,43.16
2022-09-17T23:36:51.289Z,43.12
2022-09-17T23:39:17.835Z,43.19
2022-09-17T23:41:45.591Z,43.15
2022-09-17T23:44:15.571Z,43.08
2022-09-17T23:46:42.822Z,43.14
2022-09-17T23:49:10.046Z,43.08
2022-09-17T23:51:36.715Z,43.07
2022-09-17T23:54:05.192Z,43.08
2022-09-17T23:56:31.823Z,43.07
2022-09-17T23:58:59.723Z,43.21
